Portada
METAR-TAF:

METAR-TAF

Aeroports :

Aeroport de Jiddah Rei Abdulaziz

Jiddah, Aràbia Saudita

latitud: 21-42N, longitud: 039-11E, altitud: 15 m

Observació

L'informe es va fer fa 54 minuts, a les 22:00 UTC
Vent 6 kt del Nord/Nord-Oest
Temperatura 26°C
Humitat 54%
Pressió 1013 hPa
Visibilitat 10 km o més
Núvols disperses a una alçada de 4000 ft

METAR: OEJN 032200Z 33006KT 9999 SCT040 26/16 Q1013 NOSIG

Hora: 01:54 (22:54 UTC)

Pronòstic

L'informe es va fer fa 5 hores i 54 minuts, a les 17:00 UTC
Pronòstic vàlid del 03 a les 18 UTC al 04 a les 24 UTC
Vent 10 kt del Nord
Visibilitat: 7000 m
Núvols disperses a una alçada de 4000 ft
Evolucionant progressivament
l' 04 a les 06 UTC al 04 a les 08 UTC
Vent 14 kt del Nord/Nord-Oest

TAF: OEJN 031700Z 0318/0424 01010KT 7000 SCT040 BECMG 0406/0408 33014KT

Observacions i pronòstics meteorològics de més de 4000 aeroports (METAR i TAF).

Les estacions disponibles són els punts grocs i vermells al mapa.

Posi el ratolí al punt desitjat per veure el nom de l'estació.

Feu clic per veure les observacions i els pronòstics meteorològics.

Per canviar el mapa: feu clic els botons verds amb una creu de color negre per apropar; al botó verd amb un guió per allunyar la imatge; o en les fletxes verdes per a mapes adjacents.


METAR-TAF: